sensor_id;sensor_type;location;lat;lon;timestamp;P1;durP1;ratioP1;P2;durP2;ratioP2
64595;SDS011;51003;51.628;6.670;2023-09-19T00:00:03;6.40;;;2.10;;
64595;SDS011;51003;51.628;6.670;2023-09-19T00:02:31;6.37;;;2.20;;
64595;SDS011;51003;51.628;6.670;2023-09-19T00:04:58;5.20;;;2.13;;
64595;SDS011;51003;51.628;6.670;2023-09-19T00:07:23;8.47;;;2.20;;
64595;SDS011;51003;51.628;6.670;2023-09-19T00:09:49;3.63;;;1.83;;
64595;SDS011;51003;51.628;6.670;2023-09-19T00:12:14;6.80;;;2.30;;
64595;SDS011;51003;51.628;6.670;2023-09-19T00:14:40;7.07;;;2.40;;
64595;SDS011;51003;51.628;6.670;2023-09-19T00:17:05;3.10;;;2.00;;
64595;SDS011;51003;51.628;6.670;2023-09-19T00:19:33;7.43;;;2.53;;
64595;SDS011;51003;51.628;6.670;2023-09-19T00:21:59;12.70;;;2.70;;
64595;SDS011;51003;51.628;6.670;2023-09-19T00:24:25;10.03;;;2.07;;
64595;SDS011;51003;51.628;6.670;2023-09-19T00:26:52;7.43;;;1.93;;
64595;SDS011;51003;51.628;6.670;2023-09-19T00:29:19;3.40;;;2.00;;
64595;SDS011;51003;51.628;6.670;2023-09-19T00:31:44;8.43;;;2.27;;
64595;SDS011;51003;51.628;6.670;2023-09-19T00:34:10;7.63;;;2.50;;
64595;SDS011;51003;51.628;6.670;2023-09-19T00:36:36;10.53;;;2.53;;
64595;SDS011;51003;51.628;6.670;2023-09-19T00:39:04;7.43;;;2.40;;
64595;SDS011;51003;51.628;6.670;2023-09-19T00:41:31;5.17;;;1.80;;
64595;SDS011;51003;51.628;6.670;2023-09-19T00:43:56;8.40;;;1.93;;
64595;SDS011;51003;51.628;6.670;2023-09-19T00:46:22;6.80;;;2.60;;
64595;SDS011;51003;51.628;6.670;2023-09-19T00:48:47;12.23;;;2.47;;
64595;SDS011;51003;51.628;6.670;2023-09-19T00:51:14;8.77;;;2.60;;
64595;SDS011;51003;51.628;6.670;2023-09-19T00:53:44;6.97;;;2.23;;
64595;SDS011;51003;51.628;6.670;2023-09-19T00:56:11;10.60;;;2.67;;
64595;SDS011;51003;51.628;6.670;2023-09-19T00:58:36;9.90;;;2.20;;
64595;SDS011;51003;51.628;6.670;2023-09-19T01:01:02;7.50;;;2.10;;
64595;SDS011;51003;51.628;6.670;2023-09-19T01:03:32;3.80;;;2.30;;
64595;SDS011;51003;51.628;6.670;2023-09-19T01:05:59;4.20;;;2.20;;
64595;SDS011;51003;51.628;6.670;2023-09-19T01:08:25;5.53;;;2.07;;
64595;SDS011;51003;51.628;6.670;2023-09-19T01:10:55;6.83;;;2.40;;
64595;SDS011;51003;51.628;6.670;2023-09-19T01:13:33;5.70;;;2.50;;
64595;SDS011;51003;51.628;6.670;2023-09-19T01:29:48;7.47;;;3.00;;
64595;SDS011;51003;51.628;6.670;2023-09-19T01:32:18;7.60;;;2.60;;
64595;SDS011;51003;51.628;6.670;2023-09-19T01:37:17;7.80;;;2.47;;
64595;SDS011;51003;51.628;6.670;2023-09-19T01:39:49;8.13;;;1.80;;
64595;SDS011;51003;51.628;6.670;2023-09-19T01:44:58;12.63;;;2.57;;
64595;SDS011;51003;51.628;6.670;2023-09-19T01:47:43;11.87;;;2.40;;
64595;SDS011;51003;51.628;6.670;2023-09-19T01:53:02;8.20;;;2.37;;
64595;SDS011;51003;51.628;6.670;2023-09-19T01:55:30;10.03;;;3.20;;
64595;SDS011;51003;51.628;6.670;2023-09-19T01:58:13;11.13;;;2.00;;
64595;SDS011;51003;51.628;6.670;2023-09-19T02:01:00;4.37;;;2.10;;
64595;SDS011;51003;51.628;6.670;2023-09-19T02:03:26;4.70;;;2.00;;
64595;SDS011;51003;51.628;6.670;2023-09-19T02:05:53;10.13;;;2.57;;
64595;SDS011;51003;51.628;6.670;2023-09-19T02:08:20;8.30;;;2.50;;
64595;SDS011;51003;51.628;6.670;2023-09-19T02:10:46;12.33;;;2.50;;
64595;SDS011;51003;51.628;6.670;2023-09-19T02:13:17;8.63;;;2.40;;
64595;SDS011;51003;51.628;6.670;2023-09-19T02:15:46;7.60;;;2.20;;
64595;SDS011;51003;51.628;6.670;2023-09-19T02:18:12;6.03;;;1.90;;
64595;SDS011;51003;51.628;6.670;2023-09-19T02:20:40;9.43;;;2.47;;
64595;SDS011;51003;51.628;6.670;2023-09-19T02:23:05;7.07;;;2.23;;
64595;SDS011;51003;51.628;6.670;2023-09-19T02:25:31;9.30;;;2.50;;
64595;SDS011;51003;51.628;6.670;2023-09-19T02:27:57;7.57;;;2.73;;
64595;SDS011;51003;51.628;6.670;2023-09-19T02:30:23;12.67;;;2.30;;
64595;SDS011;51003;51.628;6.670;2023-09-19T02:32:50;7.67;;;2.30;;
64595;SDS011;51003;51.628;6.670;2023-09-19T02:35:16;5.83;;;2.07;;
64595;SDS011;51003;51.628;6.670;2023-09-19T02:37:44;6.47;;;2.30;;
64595;SDS011;51003;51.628;6.670;2023-09-19T02:40:10;6.63;;;2.10;;
64595;SDS011;51003;51.628;6.670;2023-09-19T02:42:46;6.53;;;2.03;;
64595;SDS011;51003;51.628;6.670;2023-09-19T02:45:19;11.10;;;2.03;;
64595;SDS011;51003;51.628;6.670;2023-09-19T02:47:45;9.23;;;2.13;;
64595;SDS011;51003;51.628;6.670;2023-09-19T02:50:11;5.70;;;2.10;;
64595;SDS011;51003;51.628;6.670;2023-09-19T02:52:38;6.33;;;2.00;;
64595;SDS011;51003;51.628;6.670;2023-09-19T02:55:04;9.53;;;2.97;;
64595;SDS011;51003;51.628;6.670;2023-09-19T02:57:31;6.93;;;2.53;;
64595;SDS011;51003;51.628;6.670;2023-09-19T02:59:59;6.87;;;2.50;;
64595;SDS011;51003;51.628;6.670;2023-09-19T03:02:25;6.70;;;2.20;;
64595;SDS011;51003;51.628;6.670;2023-09-19T03:04:52;8.90;;;2.30;;
64595;SDS011;51003;51.628;6.670;2023-09-19T03:07:18;13.67;;;3.03;;
64595;SDS011;51003;51.628;6.670;2023-09-19T03:09:43;6.37;;;2.20;;
64595;SDS011;51003;51.628;6.670;2023-09-19T03:12:10;4.80;;;2.20;;
64595;SDS011;51003;51.628;6.670;2023-09-19T03:14:35;8.03;;;2.50;;
64595;SDS011;51003;51.628;6.670;2023-09-19T03:17:01;5.67;;;1.90;;
64595;SDS011;51003;51.628;6.670;2023-09-19T03:19:29;7.30;;;2.13;;
64595;SDS011;51003;51.628;6.670;2023-09-19T03:21:55;7.80;;;2.07;;
64595;SDS011;51003;51.628;6.670;2023-09-19T03:24:22;18.90;;;2.13;;
64595;SDS011;51003;51.628;6.670;2023-09-19T03:26:48;5.13;;;1.97;;
64595;SDS011;51003;51.628;6.670;2023-09-19T03:29:14;5.13;;;1.87;;
64595;SDS011;51003;51.628;6.670;2023-09-19T03:31:40;4.13;;;2.10;;
64595;SDS011;51003;51.628;6.670;2023-09-19T03:34:06;4.40;;;2.30;;
64595;SDS011;51003;51.628;6.670;2023-09-19T03:36:31;9.57;;;2.20;;
64595;SDS011;51003;51.628;6.670;2023-09-19T03:39:01;8.93;;;2.50;;
64595;SDS011;51003;51.628;6.670;2023-09-19T03:41:30;6.83;;;1.87;;
64595;SDS011;51003;51.628;6.670;2023-09-19T03:43:56;12.60;;;2.40;;
64595;SDS011;51003;51.628;6.670;2023-09-19T03:46:21;4.53;;;2.00;;
64595;SDS011;51003;51.628;6.670;2023-09-19T03:48:47;11.07;;;2.00;;
64595;SDS011;51003;51.628;6.670;2023-09-19T03:51:12;8.83;;;1.80;;
64595;SDS011;51003;51.628;6.670;2023-09-19T03:53:37;8.63;;;2.07;;
64595;SDS011;51003;51.628;6.670;2023-09-19T03:56:03;7.37;;;1.90;;
64595;SDS011;51003;51.628;6.670;2023-09-19T03:58:28;6.83;;;2.00;;
64595;SDS011;51003;51.628;6.670;2023-09-19T04:00:57;9.60;;;2.10;;
64595;SDS011;51003;51.628;6.670;2023-09-19T04:03:23;11.37;;;2.70;;
64595;SDS011;51003;51.628;6.670;2023-09-19T04:05:49;8.10;;;2.03;;
64595;SDS011;51003;51.628;6.670;2023-09-19T04:08:15;8.53;;;2.07;;
64595;SDS011;51003;51.628;6.670;2023-09-19T04:10:41;6.93;;;2.10;;
64595;SDS011;51003;51.628;6.670;2023-09-19T04:13:08;6.90;;;2.00;;
64595;SDS011;51003;51.628;6.670;2023-09-19T04:15:34;7.60;;;2.30;;
64595;SDS011;51003;51.628;6.670;2023-09-19T04:17:59;5.00;;;1.80;;
64595;SDS011;51003;51.628;6.670;2023-09-19T04:20:24;8.23;;;2.50;;
64595;SDS011;51003;51.628;6.670;2023-09-19T04:22:50;4.93;;;2.57;;
64595;SDS011;51003;51.628;6.670;2023-09-19T04:25:16;11.27;;;2.10;;
64595;SDS011;51003;51.628;6.670;2023-09-19T04:27:41;11.97;;;2.90;;
64595;SDS011;51003;51.628;6.670;2023-09-19T04:30:07;4.40;;;2.40;;
64595;SDS011;51003;51.628;6.670;2023-09-19T04:32:37;6.77;;;2.70;;
64595;SDS011;51003;51.628;6.670;2023-09-19T04:35:05;6.73;;;1.93;;
64595;SDS011;51003;51.628;6.670;2023-09-19T04:37:38;8.93;;;1.80;;
64595;SDS011;51003;51.628;6.670;2023-09-19T04:40:05;7.17;;;2.20;;
64595;SDS011;51003;51.628;6.670;2023-09-19T04:42:37;6.23;;;1.80;;
64595;SDS011;51003;51.628;6.670;2023-09-19T04:45:02;7.70;;;1.90;;
64595;SDS011;51003;51.628;6.670;2023-09-19T04:47:28;11.10;;;2.37;;
64595;SDS011;51003;51.628;6.670;2023-09-19T04:49:54;4.30;;;2.10;;
64595;SDS011;51003;51.628;6.670;2023-09-19T04:52:19;8.97;;;1.97;;
64595;SDS011;51003;51.628;6.670;2023-09-19T04:54:45;7.90;;;1.80;;
64595;SDS011;51003;51.628;6.670;2023-09-19T04:57:11;8.70;;;2.10;;
64595;SDS011;51003;51.628;6.670;2023-09-19T04:59:37;4.00;;;1.80;;
64595;SDS011;51003;51.628;6.670;2023-09-19T05:02:03;5.03;;;2.07;;
64595;SDS011;51003;51.628;6.670;2023-09-19T05:04:29;9.70;;;1.87;;
64595;SDS011;51003;51.628;6.670;2023-09-19T05:06:55;7.87;;;2.37;;
64595;SDS011;51003;51.628;6.670;2023-09-19T05:09:20;3.30;;;1.80;;
64595;SDS011;51003;51.628;6.670;2023-09-19T05:11:46;4.63;;;2.27;;
64595;SDS011;51003;51.628;6.670;2023-09-19T05:14:11;8.40;;;2.57;;
64595;SDS011;51003;51.628;6.670;2023-09-19T05:16:36;6.40;;;1.93;;
64595;SDS011;51003;51.628;6.670;2023-09-19T05:19:02;8.90;;;1.90;;
64595;SDS011;51003;51.628;6.670;2023-09-19T05:21:27;9.80;;;2.43;;
64595;SDS011;51003;51.628;6.670;2023-09-19T05:23:56;7.03;;;2.20;;
64595;SDS011;51003;51.628;6.670;2023-09-19T05:26:21;8.93;;;1.90;;
64595;SDS011;51003;51.628;6.670;2023-09-19T05:28:47;12.07;;;2.57;;
64595;SDS011;51003;51.628;6.670;2023-09-19T05:31:15;5.80;;;2.10;;
64595;SDS011;51003;51.628;6.670;2023-09-19T05:33:41;9.47;;;2.67;;
64595;SDS011;51003;51.628;6.670;2023-09-19T05:36:07;7.80;;;2.20;;
64595;SDS011;51003;51.628;6.670;2023-09-19T05:38:35;10.37;;;2.37;;
64595;SDS011;51003;51.628;6.670;2023-09-19T05:41:02;8.00;;;2.20;;
64595;SDS011;51003;51.628;6.670;2023-09-19T05:43:27;6.90;;;2.00;;
64595;SDS011;51003;51.628;6.670;2023-09-19T05:45:52;9.40;;;2.00;;
64595;SDS011;51003;51.628;6.670;2023-09-19T05:48:18;6.53;;;2.50;;
64595;SDS011;51003;51.628;6.670;2023-09-19T05:50:43;9.73;;;2.30;;
64595;SDS011;51003;51.628;6.670;2023-09-19T05:53:11;7.70;;;2.17;;
64595;SDS011;51003;51.628;6.670;2023-09-19T05:55:39;9.50;;;2.40;;
64595;SDS011;51003;51.628;6.670;2023-09-19T05:58:05;5.80;;;2.33;;
64595;SDS011;51003;51.628;6.670;2023-09-19T06:00:30;6.43;;;1.83;;
64595;SDS011;51003;51.628;6.670;2023-09-19T06:02:57;8.03;;;2.23;;
64595;SDS011;51003;51.628;6.670;2023-09-19T06:05:26;7.80;;;2.57;;
64595;SDS011;51003;51.628;6.670;2023-09-19T06:07:52;4.50;;;2.10;;
64595;SDS011;51003;51.628;6.670;2023-09-19T06:10:18;10.80;;;2.17;;
64595;SDS011;51003;51.628;6.670;2023-09-19T06:12:45;10.90;;;2.40;;
64595;SDS011;51003;51.628;6.670;2023-09-19T06:15:14;6.80;;;2.03;;
64595;SDS011;51003;51.628;6.670;2023-09-19T06:17:47;7.83;;;2.37;;
64595;SDS011;51003;51.628;6.670;2023-09-19T06:20:13;3.90;;;2.10;;
64595;SDS011;51003;51.628;6.670;2023-09-19T06:22:40;10.07;;;1.90;;
64595;SDS011;51003;51.628;6.670;2023-09-19T06:25:09;7.63;;;2.20;;
64595;SDS011;51003;51.628;6.670;2023-09-19T06:27:44;5.63;;;2.23;;
64595;SDS011;51003;51.628;6.670;2023-09-19T06:30:10;4.30;;;1.87;;
64595;SDS011;51003;51.628;6.670;2023-09-19T06:32:42;7.80;;;2.73;;
64595;SDS011;51003;51.628;6.670;2023-09-19T06:35:09;8.20;;;2.10;;
64595;SDS011;51003;51.628;6.670;2023-09-19T06:37:38;7.23;;;1.83;;
64595;SDS011;51003;51.628;6.670;2023-09-19T06:40:05;7.60;;;2.27;;
64595;SDS011;51003;51.628;6.670;2023-09-19T06:42:50;5.50;;;2.30;;
64595;SDS011;51003;51.628;6.670;2023-09-19T06:45:17;6.03;;;2.53;;
64595;SDS011;51003;51.628;6.670;2023-09-19T06:47:47;11.10;;;2.13;;
64595;SDS011;51003;51.628;6.670;2023-09-19T06:50:22;7.53;;;1.90;;
64595;SDS011;51003;51.628;6.670;2023-09-19T06:52:51;4.03;;;2.00;;
64595;SDS011;51003;51.628;6.670;2023-09-19T06:55:19;6.83;;;2.17;;
64595;SDS011;51003;51.628;6.670;2023-09-19T06:57:46;5.87;;;1.83;;
64595;SDS011;51003;51.628;6.670;2023-09-19T07:00:12;5.73;;;2.13;;
64595;SDS011;51003;51.628;6.670;2023-09-19T07:03:02;6.93;;;2.13;;
64595;SDS011;51003;51.628;6.670;2023-09-19T07:05:35;4.80;;;2.10;;
64595;SDS011;51003;51.628;6.670;2023-09-19T07:08:02;7.97;;;2.27;;
64595;SDS011;51003;51.628;6.670;2023-09-19T07:10:28;5.83;;;1.87;;
64595;SDS011;51003;51.628;6.670;2023-09-19T07:12:55;6.73;;;2.10;;
64595;SDS011;51003;51.628;6.670;2023-09-19T07:15:24;6.23;;;2.00;;
64595;SDS011;51003;51.628;6.670;2023-09-19T07:17:51;10.20;;;2.60;;
64595;SDS011;51003;51.628;6.670;2023-09-19T07:20:17;5.20;;;2.17;;
64595;SDS011;51003;51.628;6.670;2023-09-19T07:22:43;5.83;;;2.20;;
64595;SDS011;51003;51.628;6.670;2023-09-19T07:25:09;9.10;;;2.53;;
64595;SDS011;51003;51.628;6.670;2023-09-19T07:27:34;8.57;;;2.77;;
64595;SDS011;51003;51.628;6.670;2023-09-19T07:29:59;9.10;;;2.30;;
64595;SDS011;51003;51.628;6.670;2023-09-19T07:32:25;5.60;;;2.50;;
64595;SDS011;51003;51.628;6.670;2023-09-19T07:34:50;11.83;;;2.20;;
64595;SDS011;51003;51.628;6.670;2023-09-19T07:37:16;10.80;;;2.23;;
64595;SDS011;51003;51.628;6.670;2023-09-19T07:39:41;6.47;;;2.40;;
64595;SDS011;51003;51.628;6.670;2023-09-19T07:42:06;6.70;;;2.43;;
64595;SDS011;51003;51.628;6.670;2023-09-19T07:44:32;9.50;;;2.20;;
64595;SDS011;51003;51.628;6.670;2023-09-19T07:46:57;6.13;;;2.47;;
64595;SDS011;51003;51.628;6.670;2023-09-19T07:49:23;9.30;;;2.20;;
64595;SDS011;51003;51.628;6.670;2023-09-19T07:51:48;10.00;;;3.13;;
64595;SDS011;51003;51.628;6.670;2023-09-19T07:54:14;14.30;;;3.30;;
64595;SDS011;51003;51.628;6.670;2023-09-19T07:56:39;9.77;;;2.90;;
64595;SDS011;51003;51.628;6.670;2023-09-19T07:59:05;8.20;;;1.87;;
64595;SDS011;51003;51.628;6.670;2023-09-19T08:01:31;8.07;;;2.40;;
64595;SDS011;51003;51.628;6.670;2023-09-19T08:03:58;8.07;;;2.00;;
64595;SDS011;51003;51.628;6.670;2023-09-19T08:06:23;7.10;;;2.17;;
64595;SDS011;51003;51.628;6.670;2023-09-19T08:08:52;8.70;;;1.90;;
64595;SDS011;51003;51.628;6.670;2023-09-19T08:11:18;6.93;;;2.07;;
64595;SDS011;51003;51.628;6.670;2023-09-19T08:13:46;6.03;;;2.30;;
64595;SDS011;51003;51.628;6.670;2023-09-19T08:16:14;9.30;;;2.37;;
64595;SDS011;51003;51.628;6.670;2023-09-19T08:18:40;11.83;;;3.10;;
64595;SDS011;51003;51.628;6.670;2023-09-19T08:21:06;9.03;;;2.47;;
64595;SDS011;51003;51.628;6.670;2023-09-19T08:23:39;17.07;;;2.70;;
64595;SDS011;51003;51.628;6.670;2023-09-19T08:26:05;7.43;;;2.30;;
64595;SDS011;51003;51.628;6.670;2023-09-19T08:28:33;8.20;;;2.10;;
64595;SDS011;51003;51.628;6.670;2023-09-19T08:31:03;11.40;;;2.70;;
64595;SDS011;51003;51.628;6.670;2023-09-19T08:33:32;8.80;;;2.63;;
64595;SDS011;51003;51.628;6.670;2023-09-19T08:36:01;11.30;;;2.03;;
64595;SDS011;51003;51.628;6.670;2023-09-19T08:38:30;13.37;;;2.33;;
64595;SDS011;51003;51.628;6.670;2023-09-19T08:40:58;6.37;;;2.10;;
64595;SDS011;51003;51.628;6.670;2023-09-19T08:43:27;12.43;;;2.13;;
64595;SDS011;51003;51.628;6.670;2023-09-19T08:45:54;9.27;;;2.00;;
64595;SDS011;51003;51.628;6.670;2023-09-19T08:48:25;13.10;;;2.73;;
64595;SDS011;51003;51.628;6.670;2023-09-19T08:51:02;5.73;;;2.10;;
64595;SDS011;51003;51.628;6.670;2023-09-19T08:56:19;7.87;;;2.37;;
64595;SDS011;51003;51.628;6.670;2023-09-19T08:58:51;17.20;;;2.80;;
64595;SDS011;51003;51.628;6.670;2023-09-19T09:01:20;6.17;;;2.23;;
64595;SDS011;51003;51.628;6.670;2023-09-19T09:03:55;9.30;;;2.30;;
64595;SDS011;51003;51.628;6.670;2023-09-19T09:06:22;4.43;;;2.07;;
64595;SDS011;51003;51.628;6.670;2023-09-19T09:08:52;10.67;;;2.40;;
64595;SDS011;51003;51.628;6.670;2023-09-19T09:11:18;11.47;;;2.60;;
64595;SDS011;51003;51.628;6.670;2023-09-19T09:13:44;8.23;;;2.87;;
64595;SDS011;51003;51.628;6.670;2023-09-19T09:16:10;5.87;;;2.30;;
64595;SDS011;51003;51.628;6.670;2023-09-19T09:18:37;7.07;;;2.30;;
64595;SDS011;51003;51.628;6.670;2023-09-19T09:21:03;7.67;;;2.40;;
64595;SDS011;51003;51.628;6.670;2023-09-19T09:23:31;12.37;;;2.23;;
64595;SDS011;51003;51.628;6.670;2023-09-19T09:25:58;8.93;;;2.53;;
64595;SDS011;51003;51.628;6.670;2023-09-19T09:28:34;8.03;;;2.57;;
64595;SDS011;51003;51.628;6.670;2023-09-19T09:31:04;9.23;;;2.40;;
64595;SDS011;51003;51.628;6.670;2023-09-19T09:33:34;7.57;;;2.60;;
64595;SDS011;51003;51.628;6.670;2023-09-19T09:36:01;5.20;;;2.07;;
64595;SDS011;51003;51.628;6.670;2023-09-19T09:38:49;10.67;;;2.17;;
64595;SDS011;51003;51.628;6.670;2023-09-19T09:41:14;7.13;;;2.57;;
64595;SDS011;51003;51.628;6.670;2023-09-19T09:43:41;6.90;;;2.30;;
64595;SDS011;51003;51.628;6.670;2023-09-19T09:46:16;6.90;;;2.40;;
64595;SDS011;51003;51.628;6.670;2023-09-19T09:48:48;6.63;;;2.40;;
64595;SDS011;51003;51.628;6.670;2023-09-19T09:51:41;7.47;;;2.43;;
64595;SDS011;51003;51.628;6.670;2023-09-19T09:54:12;4.77;;;2.30;;
64595;SDS011;51003;51.628;6.670;2023-09-19T09:56:57;3.83;;;2.03;;
64595;SDS011;51003;51.628;6.670;2023-09-19T09:59:49;9.07;;;2.83;;
64595;SDS011;51003;51.628;6.670;2023-09-19T10:02:39;6.73;;;2.33;;
64595;SDS011;51003;51.628;6.670;2023-09-19T10:07:38;8.23;;;2.77;;
64595;SDS011;51003;51.628;6.670;2023-09-19T10:10:06;6.13;;;2.20;;
64595;SDS011;51003;51.628;6.670;2023-09-19T10:12:38;3.93;;;2.20;;
64595;SDS011;51003;51.628;6.670;2023-09-19T10:15:07;6.43;;;2.43;;
64595;SDS011;51003;51.628;6.670;2023-09-19T10:17:36;3.90;;;2.00;;
64595;SDS011;51003;51.628;6.670;2023-09-19T10:20:01;2.20;;;2.00;;
64595;SDS011;51003;51.628;6.670;2023-09-19T10:22:35;4.60;;;1.90;;
64595;SDS011;51003;51.628;6.670;2023-09-19T10:25:02;17.40;;;2.20;;
64595;SDS011;51003;51.628;6.670;2023-09-19T10:27:30;4.50;;;2.03;;
64595;SDS011;51003;51.628;6.670;2023-09-19T10:30:02;7.90;;;2.60;;
64595;SDS011;51003;51.628;6.670;2023-09-19T10:32:34;5.80;;;2.27;;
64595;SDS011;51003;51.628;6.670;2023-09-19T10:35:00;7.00;;;2.30;;
64595;SDS011;51003;51.628;6.670;2023-09-19T10:37:26;5.03;;;2.40;;
64595;SDS011;51003;51.628;6.670;2023-09-19T10:39:52;3.30;;;2.00;;
64595;SDS011;51003;51.628;6.670;2023-09-19T10:42:19;5.50;;;2.30;;
64595;SDS011;51003;51.628;6.670;2023-09-19T10:44:46;6.50;;;2.30;;
64595;SDS011;51003;51.628;6.670;2023-09-19T10:47:14;5.60;;;2.43;;
64595;SDS011;51003;51.628;6.670;2023-09-19T10:49:44;3.93;;;2.10;;
64595;SDS011;51003;51.628;6.670;2023-09-19T10:52:11;4.00;;;2.07;;
64595;SDS011;51003;51.628;6.670;2023-09-19T10:54:44;6.30;;;2.80;;
64595;SDS011;51003;51.628;6.670;2023-09-19T10:57:18;4.97;;;2.50;;
64595;SDS011;51003;51.628;6.670;2023-09-19T11:05:36;4.70;;;2.03;;
64595;SDS011;51003;51.628;6.670;2023-09-19T11:08:09;8.20;;;2.37;;
64595;SDS011;51003;51.628;6.670;2023-09-19T11:13:25;3.63;;;2.27;;
64595;SDS011;51003;51.628;6.670;2023-09-19T11:29:25;5.27;;;2.47;;
64595;SDS011;51003;51.628;6.670;2023-09-19T11:31:50;4.27;;;2.10;;
64595;SDS011;51003;51.628;6.670;2023-09-19T11:40:28;5.40;;;2.23;;
64595;SDS011;51003;51.628;6.670;2023-09-19T11:42:45;6.23;;;2.20;;
64595;SDS011;51003;51.628;6.670;2023-09-19T11:48:20;5.33;;;2.00;;
64595;SDS011;51003;51.628;6.670;2023-09-19T11:50:50;3.83;;;2.10;;
64595;SDS011;51003;51.628;6.670;2023-09-19T11:53:16;6.57;;;2.40;;
64595;SDS011;51003;51.628;6.670;2023-09-19T11:55:44;4.37;;;2.67;;
64595;SDS011;51003;51.628;6.670;2023-09-19T11:58:10;6.47;;;2.20;;
64595;SDS011;51003;51.628;6.670;2023-09-19T12:00:39;7.30;;;2.10;;
64595;SDS011;51003;51.628;6.670;2023-09-19T12:03:09;6.07;;;3.00;;
64595;SDS011;51003;51.628;6.670;2023-09-19T12:05:39;5.73;;;2.07;;
64595;SDS011;51003;51.628;6.670;2023-09-19T12:08:05;6.40;;;2.30;;
64595;SDS011;51003;51.628;6.670;2023-09-19T12:10:34;4.60;;;2.50;;
64595;SDS011;51003;51.628;6.670;2023-09-19T12:13:09;3.87;;;2.30;;
64595;SDS011;51003;51.628;6.670;2023-09-19T12:15:37;6.67;;;2.00;;
64595;SDS011;51003;51.628;6.670;2023-09-19T12:18:05;5.37;;;2.07;;
64595;SDS011;51003;51.628;6.670;2023-09-19T12:20:41;3.50;;;2.30;;
64595;SDS011;51003;51.628;6.670;2023-09-19T12:23:14;5.20;;;2.40;;
64595;SDS011;51003;51.628;6.670;2023-09-19T12:25:43;3.13;;;2.03;;
64595;SDS011;51003;51.628;6.670;2023-09-19T12:28:12;5.67;;;2.00;;
64595;SDS011;51003;51.628;6.670;2023-09-19T12:30:38;6.10;;;2.23;;
64595;SDS011;51003;51.628;6.670;2023-09-19T12:33:10;4.73;;;1.97;;
64595;SDS011;51003;51.628;6.670;2023-09-19T12:35:40;3.70;;;1.90;;
64595;SDS011;51003;51.628;6.670;2023-09-19T12:38:05;3.57;;;1.80;;
64595;SDS011;51003;51.628;6.670;2023-09-19T12:40:32;5.30;;;2.20;;
64595;SDS011;51003;51.628;6.670;2023-09-19T12:43:00;2.60;;;1.80;;
64595;SDS011;51003;51.628;6.670;2023-09-19T12:45:29;2.90;;;1.73;;
64595;SDS011;51003;51.628;6.670;2023-09-19T12:51:04;9.07;;;2.10;;
64595;SDS011;51003;51.628;6.670;2023-09-19T12:53:31;4.30;;;2.10;;
64595;SDS011;51003;51.628;6.670;2023-09-19T12:55:58;2.70;;;1.80;;
64595;SDS011;51003;51.628;6.670;2023-09-19T12:58:24;2.57;;;1.90;;
64595;SDS011;51003;51.628;6.670;2023-09-19T13:00:50;5.30;;;1.73;;
64595;SDS011;51003;51.628;6.670;2023-09-19T13:08:24;5.30;;;2.40;;
64595;SDS011;51003;51.628;6.670;2023-09-19T13:13:35;2.13;;;1.90;;
64595;SDS011;51003;51.628;6.670;2023-09-19T13:16:02;2.37;;;1.70;;
64595;SDS011;51003;51.628;6.670;2023-09-19T13:18:29;4.03;;;2.03;;
64595;SDS011;51003;51.628;6.670;2023-09-19T13:21:11;5.00;;;1.73;;
64595;SDS011;51003;51.628;6.670;2023-09-19T13:26:47;8.07;;;2.37;;
64595;SDS011;51003;51.628;6.670;2023-09-19T13:29:13;3.67;;;1.40;;
64595;SDS011;51003;51.628;6.670;2023-09-19T13:31:44;3.40;;;1.40;;
64595;SDS011;51003;51.628;6.670;2023-09-19T13:34:10;3.53;;;1.93;;
64595;SDS011;51003;51.628;6.670;2023-09-19T13:36:36;5.90;;;1.70;;
64595;SDS011;51003;51.628;6.670;2023-09-19T13:39:02;2.70;;;1.20;;
64595;SDS011;51003;51.628;6.670;2023-09-19T13:41:30;6.07;;;1.40;;
64595;SDS011;51003;51.628;6.670;2023-09-19T13:43:57;4.20;;;1.27;;
64595;SDS011;51003;51.628;6.670;2023-09-19T13:46:23;3.07;;;1.50;;
64595;SDS011;51003;51.628;6.670;2023-09-19T13:48:51;4.93;;;1.50;;
64595;SDS011;51003;51.628;6.670;2023-09-19T13:51:20;5.73;;;1.47;;
64595;SDS011;51003;51.628;6.670;2023-09-19T13:53:47;2.83;;;1.60;;
64595;SDS011;51003;51.628;6.670;2023-09-19T13:56:13;8.00;;;1.50;;
64595;SDS011;51003;51.628;6.670;2023-09-19T13:58:39;2.70;;;1.60;;
64595;SDS011;51003;51.628;6.670;2023-09-19T14:01:04;1.50;;;1.30;;
64595;SDS011;51003;51.628;6.670;2023-09-19T14:03:30;4.73;;;1.30;;
64595;SDS011;51003;51.628;6.670;2023-09-19T14:05:56;3.10;;;1.60;;
64595;SDS011;51003;51.628;6.670;2023-09-19T14:08:22;2.50;;;1.53;;
64595;SDS011;51003;51.628;6.670;2023-09-19T14:10:48;3.70;;;1.20;;
64595;SDS011;51003;51.628;6.670;2023-09-19T14:13:14;5.43;;;1.40;;
64595;SDS011;51003;51.628;6.670;2023-09-19T14:15:40;3.77;;;1.50;;
64595;SDS011;51003;51.628;6.670;2023-09-19T14:18:05;5.50;;;1.20;;
64595;SDS011;51003;51.628;6.670;2023-09-19T14:20:31;2.50;;;1.40;;
64595;SDS011;51003;51.628;6.670;2023-09-19T14:22:57;2.70;;;1.50;;
64595;SDS011;51003;51.628;6.670;2023-09-19T14:25:24;3.13;;;1.40;;
64595;SDS011;51003;51.628;6.670;2023-09-19T14:27:50;5.27;;;1.30;;
64595;SDS011;51003;51.628;6.670;2023-09-19T14:30:15;3.10;;;1.70;;
64595;SDS011;51003;51.628;6.670;2023-09-19T14:32:41;2.80;;;1.27;;
64595;SDS011;51003;51.628;6.670;2023-09-19T14:35:07;6.20;;;1.73;;
64595;SDS011;51003;51.628;6.670;2023-09-19T14:37:32;1.77;;;1.40;;
64595;SDS011;51003;51.628;6.670;2023-09-19T14:39:58;1.83;;;1.30;;
64595;SDS011;51003;51.628;6.670;2023-09-19T14:42:23;3.00;;;1.37;;
64595;SDS011;51003;51.628;6.670;2023-09-19T14:44:49;1.20;;;1.10;;
64595;SDS011;51003;51.628;6.670;2023-09-19T14:47:15;3.43;;;1.13;;
64595;SDS011;51003;51.628;6.670;2023-09-19T14:49:41;3.10;;;1.40;;
64595;SDS011;51003;51.628;6.670;2023-09-19T14:52:07;3.13;;;1.43;;
64595;SDS011;51003;51.628;6.670;2023-09-19T14:54:33;3.07;;;1.33;;
64595;SDS011;51003;51.628;6.670;2023-09-19T14:56:59;1.23;;;1.10;;
64595;SDS011;51003;51.628;6.670;2023-09-19T14:59:31;1.70;;;1.40;;
64595;SDS011;51003;51.628;6.670;2023-09-19T15:01:57;3.60;;;1.50;;
64595;SDS011;51003;51.628;6.670;2023-09-19T15:04:23;1.77;;;1.40;;
64595;SDS011;51003;51.628;6.670;2023-09-19T15:06:49;2.50;;;1.20;;
64595;SDS011;51003;51.628;6.670;2023-09-19T15:09:14;1.93;;;1.10;;
64595;SDS011;51003;51.628;6.670;2023-09-19T15:11:40;2.83;;;1.30;;
64595;SDS011;51003;51.628;6.670;2023-09-19T15:14:05;2.40;;;1.33;;
64595;SDS011;51003;51.628;6.670;2023-09-19T15:16:31;1.83;;;1.20;;
64595;SDS011;51003;51.628;6.670;2023-09-19T15:18:57;1.80;;;1.30;;
64595;SDS011;51003;51.628;6.670;2023-09-19T15:21:23;1.70;;;1.23;;
64595;SDS011;51003;51.628;6.670;2023-09-19T15:23:49;2.43;;;1.10;;
64595;SDS011;51003;51.628;6.670;2023-09-19T15:26:14;3.40;;;1.10;;
64595;SDS011;51003;51.628;6.670;2023-09-19T15:28:45;2.40;;;1.10;;
64595;SDS011;51003;51.628;6.670;2023-09-19T15:31:11;1.50;;;1.30;;
64595;SDS011;51003;51.628;6.670;2023-09-19T15:33:37;2.17;;;1.10;;
64595;SDS011;51003;51.628;6.670;2023-09-19T15:36:06;1.67;;;1.20;;
64595;SDS011;51003;51.628;6.670;2023-09-19T15:38:55;1.13;;;1.03;;
64595;SDS011;51003;51.628;6.670;2023-09-19T15:43:56;3.40;;;1.10;;
64595;SDS011;51003;51.628;6.670;2023-09-19T15:46:22;6.30;;;1.30;;
64595;SDS011;51003;51.628;6.670;2023-09-19T15:48:47;3.97;;;1.57;;
64595;SDS011;51003;51.628;6.670;2023-09-19T15:51:13;2.33;;;1.00;;
64595;SDS011;51003;51.628;6.670;2023-09-19T15:53:49;3.27;;;1.77;;
64595;SDS011;51003;51.628;6.670;2023-09-19T15:56:16;2.07;;;1.30;;
64595;SDS011;51003;51.628;6.670;2023-09-19T15:58:46;2.40;;;1.33;;
64595;SDS011;51003;51.628;6.670;2023-09-19T16:01:12;3.47;;;1.70;;
64595;SDS011;51003;51.628;6.670;2023-09-19T16:03:39;2.03;;;1.10;;